Terminal Aerodrome Forecast
Issued by NWS

Home | Current Version | Previous Version | Text Only | Print | Product List | Glossary On
Versions: 1 2 3 4 5 6 7 8 9 10 11 12 13 14 15 16 17
000
FTUS41 KAKQ 222300
TAFPHF
TAF
KPHF 222320Z 2300/2324 36007KT P6SM SKC
     FM230300 03010KT P6SM FEW060 SCT250
     FM231400 04008G14KT P6SM FEW035 SCT200=

USA.gov is the U.S. government's official web portal to all federal, state and local government web resources and services.